createdAt,value
2018-07-11T00:00:39.801Z,14.70
2018-07-11T00:01:39.779Z,14.66
2018-07-11T00:03:32.796Z,14.79
2018-07-11T00:04:32.742Z,14.73
2018-07-11T00:06:25.544Z,14.72
2018-07-11T00:07:25.515Z,14.66
2018-07-11T00:09:18.341Z,14.72
2018-07-11T00:10:18.289Z,14.66
2018-07-11T00:12:11.429Z,14.68
2018-07-11T00:13:11.395Z,14.58
2018-07-11T00:15:04.502Z,14.62
2018-07-11T00:16:04.368Z,14.55
2018-07-11T00:17:57.363Z,14.55
2018-07-11T00:18:57.317Z,14.55
2018-07-11T00:20:50.135Z,14.55
2018-07-11T00:21:50.102Z,14.55
2018-07-11T00:23:43.112Z,14.54
2018-07-11T00:24:43.084Z,14.55
2018-07-11T00:26:35.924Z,14.48
2018-07-11T00:27:35.973Z,14.50
2018-07-11T00:29:29.054Z,14.47
2018-07-11T00:30:28.996Z,14.48
2018-07-11T00:32:22.008Z,14.47
2018-07-11T00:33:21.969Z,14.55
2018-07-11T00:35:14.968Z,14.47
2018-07-11T00:36:14.923Z,14.50
2018-07-11T00:38:07.727Z,14.48
2018-07-11T00:39:07.701Z,14.40
2018-07-11T00:41:00.717Z,14.37
2018-07-11T00:42:00.653Z,14.40
2018-07-11T00:43:53.650Z,14.37
2018-07-11T00:44:53.619Z,14.40
2018-07-11T00:46:46.562Z,14.36
2018-07-11T00:47:46.389Z,14.36
2018-07-11T00:49:39.217Z,14.32
2018-07-11T00:50:39.171Z,14.29
2018-07-11T00:52:32.158Z,14.29
2018-07-11T00:53:32.125Z,14.28
2018-07-11T00:55:25.142Z,14.29
2018-07-11T00:56:25.091Z,14.25
2018-07-11T00:58:18.355Z,14.15
2018-07-11T00:59:18.237Z,14.14
2018-07-11T01:01:11.047Z,14.11
2018-07-11T01:02:11.020Z,14.14
2018-07-11T01:04:04.089Z,14.18
2018-07-11T01:05:04.043Z,14.14
2018-07-11T01:06:57.209Z,14.17
2018-07-11T01:07:57.138Z,14.11
2018-07-11T01:09:50.158Z,14.18
2018-07-11T01:10:50.102Z,14.17
2018-07-11T01:12:43.252Z,14.15
2018-07-11T01:13:43.202Z,14.08
2018-07-11T01:15:37.208Z,14.15
2018-07-11T01:16:37.161Z,14.05
2018-07-11T01:18:30.232Z,14.08
2018-07-11T01:19:30.180Z,13.92
2018-07-11T01:21:23.102Z,14.03
2018-07-11T01:22:23.060Z,13.92
2018-07-11T01:24:16.069Z,13.87
2018-07-11T01:25:16.027Z,13.95
2018-07-11T01:27:09.035Z,13.96
2018-07-11T01:28:08.979Z,13.92
2018-07-11T01:30:02.150Z,13.87
2018-07-11T01:31:02.103Z,13.83
2018-07-11T01:32:55.117Z,13.79
2018-07-11T01:33:55.050Z,13.77
2018-07-11T01:35:48.201Z,13.92
2018-07-11T01:36:48.160Z,13.93
2018-07-11T01:38:41.175Z,13.95
2018-07-11T01:39:41.124Z,13.79
2018-07-11T01:41:34.126Z,13.78
2018-07-11T01:42:34.092Z,13.79
2018-07-11T01:44:26.926Z,13.89
2018-07-11T01:45:26.885Z,13.87
2018-07-11T01:47:19.874Z,13.83
2018-07-11T01:48:19.829Z,13.78
2018-07-11T01:50:12.854Z,13.74
2018-07-11T01:51:12.845Z,13.77
2018-07-11T01:53:06.079Z,13.74
2018-07-11T01:54:05.925Z,13.79
2018-07-11T01:55:58.940Z,13.79
2018-07-11T01:56:58.891Z,13.77
2018-07-11T01:58:51.941Z,13.78
2018-07-11T01:59:51.892Z,13.72
2018-07-11T02:01:44.706Z,13.75
2018-07-11T02:02:44.674Z,13.75
2018-07-11T02:04:37.500Z,13.68
2018-07-11T02:05:37.449Z,13.70
2018-07-11T02:07:30.456Z,13.63
2018-07-11T02:08:30.425Z,13.62
2018-07-11T02:10:23.436Z,13.65
2018-07-11T02:11:23.387Z,13.59
2018-07-11T02:13:16.262Z,13.59
2018-07-11T02:14:16.227Z,13.67
2018-07-11T02:16:09.057Z,13.70
2018-07-11T02:17:08.986Z,13.65
2018-07-11T02:19:02.056Z,13.63
2018-07-11T02:20:02.096Z,13.63
2018-07-11T02:21:54.843Z,13.65
2018-07-11T02:22:54.796Z,13.65
2018-07-11T02:24:47.620Z,13.60
2018-07-11T02:25:47.578Z,13.62
2018-07-11T02:27:40.586Z,13.53
2018-07-11T02:28:40.539Z,13.49
2018-07-11T02:30:33.576Z,13.53
2018-07-11T02:31:33.537Z,13.50
2018-07-11T02:33:26.684Z,13.59
2018-07-11T02:34:26.643Z,13.52
2018-07-11T02:36:19.666Z,13.46
2018-07-11T02:37:19.613Z,13.49
2018-07-11T02:39:12.627Z,13.44
2018-07-11T02:40:12.594Z,13.46
2018-07-11T02:42:05.419Z,13.44
2018-07-11T02:43:05.370Z,13.44
2018-07-11T02:44:58.380Z,13.42
2018-07-11T02:45:58.332Z,13.41
2018-07-11T02:47:51.373Z,13.42
2018-07-11T02:48:51.316Z,13.35
2018-07-11T02:50:44.494Z,13.25
2018-07-11T02:51:44.432Z,13.28
2018-07-11T02:53:37.446Z,13.25
2018-07-11T02:54:37.404Z,13.27
2018-07-11T02:56:30.708Z,13.28
2018-07-11T02:57:30.536Z,13.19
2018-07-11T02:59:23.548Z,13.18
2018-07-11T03:00:23.512Z,13.19
2018-07-11T03:02:16.548Z,13.20
2018-07-11T03:03:16.503Z,13.20
2018-07-11T03:05:09.571Z,13.23
2018-07-11T03:06:09.527Z,13.18
2018-07-11T03:08:02.624Z,13.20
2018-07-11T03:09:02.570Z,13.28
2018-07-11T03:10:55.915Z,13.20
2018-07-11T03:11:55.886Z,13.22
2018-07-11T03:13:48.737Z,13.15
2018-07-11T03:14:48.658Z,13.23
2018-07-11T03:16:41.669Z,13.27
2018-07-11T03:17:41.619Z,13.25
2018-07-11T03:19:34.682Z,13.12
2018-07-11T03:20:34.629Z,13.15
2018-07-11T03:22:27.679Z,13.18
2018-07-11T03:23:27.593Z,13.13
2018-07-11T03:25:20.820Z,13.22
2018-07-11T03:26:20.719Z,13.22
2018-07-11T03:28:13.739Z,13.19
2018-07-11T03:29:13.690Z,13.12
2018-07-11T03:31:06.505Z,13.18
2018-07-11T03:32:06.521Z,13.12
2018-07-11T03:33:59.730Z,13.11
2018-07-11T03:34:59.618Z,13.13
2018-07-11T03:36:52.771Z,13.16
2018-07-11T03:37:52.719Z,13.08
2018-07-11T03:39:45.905Z,13.15
2018-07-11T03:40:45.850Z,13.15
2018-07-11T03:42:38.855Z,13.09
2018-07-11T03:43:38.824Z,13.09
2018-07-11T03:45:31.850Z,13.09
2018-07-11T03:46:31.805Z,13.12
2018-07-11T03:48:24.644Z,13.12
2018-07-11T03:49:24.580Z,13.19
2018-07-11T03:51:17.401Z,13.15
2018-07-11T03:52:17.350Z,13.16
2018-07-11T03:54:10.385Z,13.05
2018-07-11T03:55:10.329Z,13.16
2018-07-11T03:57:03.485Z,13.18
2018-07-11T03:58:03.451Z,13.12
2018-07-11T03:59:56.484Z,13.13
2018-07-11T04:00:56.431Z,13.25
2018-07-11T04:02:49.475Z,13.23
2018-07-11T04:03:49.435Z,13.23
2018-07-11T04:05:42.321Z,13.20
2018-07-11T04:06:42.240Z,13.27
2018-07-11T04:08:35.249Z,13.23
2018-07-11T04:09:35.214Z,13.22
2018-07-11T04:11:28.235Z,13.19
2018-07-11T04:12:28.189Z,13.20
2018-07-11T04:14:22.390Z,13.22
2018-07-11T04:15:22.347Z,13.25
2018-07-11T04:17:15.371Z,13.22
2018-07-11T04:18:15.316Z,13.18
2018-07-11T04:20:08.458Z,13.22
2018-07-11T04:21:08.413Z,13.15
2018-07-11T04:23:01.430Z,13.25
2018-07-11T04:24:01.376Z,13.30
2018-07-11T04:25:54.398Z,13.23
2018-07-11T04:26:54.357Z,13.15
2018-07-11T04:28:47.191Z,13.31
2018-07-11T04:29:47.118Z,13.25
2018-07-11T04:31:39.962Z,13.28
2018-07-11T04:32:39.898Z,13.23
2018-07-11T04:34:32.908Z,13.08
2018-07-11T04:35:32.852Z,13.09
2018-07-11T04:37:25.880Z,13.11
2018-07-11T04:38:25.827Z,13.12
2018-07-11T04:40:18.925Z,13.05
2018-07-11T04:41:18.891Z,13.01
2018-07-11T04:43:11.908Z,13.13
2018-07-11T04:44:11.869Z,13.04
2018-07-11T04:46:05.027Z,13.11
2018-07-11T04:47:04.967Z,13.13
2018-07-11T04:48:58.068Z,13.15
2018-07-11T04:49:57.933Z,13.09
2018-07-11T04:51:50.971Z,13.19
2018-07-11T04:52:50.902Z,13.11
2018-07-11T04:54:44.025Z,13.23
2018-07-11T04:55:43.987Z,13.20
2018-07-11T04:57:37.037Z,13.20
2018-07-11T04:58:37.031Z,13.28
2018-07-11T05:00:30.214Z,13.33
2018-07-11T05:01:30.073Z,13.33
2018-07-11T05:03:23.102Z,13.44
2018-07-11T05:04:23.046Z,13.50
2018-07-11T05:06:16.058Z,13.49
2018-07-11T05:07:16.026Z,13.54
2018-07-11T05:09:09.112Z,13.63
2018-07-11T05:10:09.069Z,13.65
2018-07-11T05:12:01.878Z,13.62
2018-07-11T05:13:01.864Z,13.65
2018-07-11T05:14:54.856Z,13.60
2018-07-11T05:15:54.800Z,13.68
2018-07-11T05:17:47.985Z,13.81
2018-07-11T05:18:47.899Z,13.75
2018-07-11T05:20:40.921Z,13.83
2018-07-11T05:21:40.896Z,13.93
2018-07-11T05:23:34.055Z,14.00
2018-07-11T05:24:33.994Z,14.15
2018-07-11T05:26:26.990Z,14.20
2018-07-11T05:27:26.950Z,14.30
2018-07-11T05:29:19.998Z,14.35
2018-07-11T05:30:19.950Z,14.35
2018-07-11T05:32:12.759Z,14.51
2018-07-11T05:33:12.729Z,14.53
2018-07-11T05:35:05.755Z,14.59
2018-07-11T05:36:05.692Z,14.70
2018-07-11T05:37:58.702Z,14.79
2018-07-11T05:38:58.700Z,14.81
2018-07-11T05:40:51.887Z,14.97
2018-07-11T05:41:51.789Z,15.02
2018-07-11T05:43:44.801Z,15.02
2018-07-11T05:44:44.745Z,15.04
2018-07-11T05:46:37.837Z,15.18
2018-07-11T05:47:37.800Z,15.19
2018-07-11T05:49:30.833Z,15.31
2018-07-11T05:50:30.780Z,15.28
2018-07-11T05:52:23.794Z,15.40
2018-07-11T05:53:23.764Z,15.37
2018-07-11T05:55:16.959Z,15.44
2018-07-11T05:56:16.875Z,15.51
2018-07-11T05:58:09.869Z,15.62
2018-07-11T05:59:09.845Z,15.70
2018-07-11T06:01:03.206Z,15.83
2018-07-11T06:02:03.124Z,15.88
2018-07-11T06:03:56.196Z,15.92
2018-07-11T06:04:56.166Z,16.01
2018-07-11T06:06:49.356Z,16.01
2018-07-11T06:07:49.291Z,16.10
2018-07-11T06:09:42.310Z,16.20
2018-07-11T06:10:42.272Z,16.15
2018-07-11T06:12:35.269Z,16.16
2018-07-11T06:13:35.275Z,16.15
2018-07-11T06:15:28.103Z,16.31
2018-07-11T06:16:28.151Z,16.29
2018-07-11T06:18:21.071Z,16.15
2018-07-11T06:19:21.052Z,16.16
2018-07-11T06:21:13.857Z,16.20
2018-07-11T06:22:13.807Z,16.00
2018-07-11T06:24:06.832Z,16.21
2018-07-11T06:25:06.803Z,16.16
2018-07-11T06:26:59.835Z,16.13
2018-07-11T06:27:59.803Z,16.17
2018-07-11T06:29:52.786Z,16.15
2018-07-11T06:30:52.758Z,16.17
2018-07-11T06:32:45.982Z,16.01
2018-07-11T06:33:45.880Z,16.04
2018-07-11T06:35:38.677Z,16.08
2018-07-11T06:36:38.632Z,16.00
2018-07-11T06:38:31.718Z,16.01
2018-07-11T06:39:31.684Z,16.00
2018-07-11T06:41:24.857Z,16.09
2018-07-11T06:42:24.813Z,16.00
2018-07-11T06:44:17.825Z,16.02
2018-07-11T06:45:17.783Z,16.08
2018-07-11T06:47:10.993Z,16.16
2018-07-11T06:48:10.902Z,16.10
2018-07-11T06:50:04.009Z,16.00
2018-07-11T06:51:03.966Z,16.10
2018-07-11T06:52:56.970Z,16.08
2018-07-11T06:53:56.927Z,16.08
2018-07-11T06:55:49.983Z,16.17
2018-07-11T06:56:49.928Z,16.26
2018-07-11T06:58:42.767Z,16.17
2018-07-11T06:59:42.717Z,16.13
2018-07-11T07:01:35.709Z,16.15
2018-07-11T07:02:35.690Z,16.17
2018-07-11T07:04:28.830Z,16.36
2018-07-11T07:05:28.749Z,16.15
2018-07-11T07:07:21.563Z,16.29
2018-07-11T07:08:21.525Z,16.32
2018-07-11T07:10:14.542Z,16.29
2018-07-11T07:11:14.494Z,16.32
2018-07-11T07:13:07.642Z,16.39
2018-07-11T07:14:07.612Z,16.43
2018-07-11T07:16:00.633Z,16.43
2018-07-11T07:17:00.590Z,16.46
2018-07-11T07:18:53.843Z,16.46
2018-07-11T07:19:53.713Z,16.49
2018-07-11T07:21:46.739Z,16.41
2018-07-11T07:22:46.704Z,16.41
2018-07-11T07:24:39.735Z,16.42
2018-07-11T07:25:39.675Z,16.50
2018-07-11T07:27:32.652Z,16.56
2018-07-11T07:28:32.515Z,16.68
2018-07-11T07:30:25.550Z,16.72
2018-07-11T07:31:25.480Z,16.71
2018-07-11T07:33:18.501Z,16.69
2018-07-11T07:34:18.474Z,16.81
2018-07-11T07:36:11.604Z,16.86
2018-07-11T07:37:11.554Z,16.90
2018-07-11T07:39:04.556Z,16.91
2018-07-11T07:40:04.601Z,16.96
2018-07-11T07:41:57.821Z,17.02
2018-07-11T07:42:57.670Z,17.06
2018-07-11T07:44:50.688Z,17.15
2018-07-11T07:45:50.642Z,17.19
2018-07-11T07:47:43.694Z,17.19
2018-07-11T07:48:43.656Z,17.24
2018-07-11T07:50:36.717Z,17.42
2018-07-11T07:51:36.666Z,17.36
2018-07-11T07:53:29.692Z,17.54
2018-07-11T07:54:29.658Z,17.52
2018-07-11T07:56:22.901Z,17.57
2018-07-11T07:57:22.762Z,17.54
2018-07-11T07:59:15.580Z,17.57
2018-07-11T08:00:15.550Z,17.59
2018-07-11T08:02:08.571Z,17.67
2018-07-11T08:03:08.550Z,17.67
2018-07-11T08:05:01.677Z,17.71
2018-07-11T08:06:01.646Z,17.72
2018-07-11T08:07:54.666Z,17.82
2018-07-11T08:08:54.629Z,17.76
2018-07-11T08:10:47.451Z,17.79
2018-07-11T08:11:47.402Z,17.76
2018-07-11T08:13:40.567Z,17.90
2018-07-11T08:14:40.531Z,17.94
2018-07-11T08:16:33.570Z,18.10
2018-07-11T08:17:33.514Z,18.08
2018-07-11T08:19:26.652Z,18.04
2018-07-11T08:20:26.651Z,18.15
2018-07-11T08:22:19.663Z,18.15
2018-07-11T08:23:19.627Z,18.22
2018-07-11T08:25:12.621Z,18.35
2018-07-11T08:26:12.600Z,18.35
2018-07-11T08:28:05.463Z,18.43
2018-07-11T08:29:05.430Z,18.47
2018-07-11T08:30:58.454Z,18.55
2018-07-11T08:31:58.428Z,18.53
2018-07-11T08:33:51.457Z,18.68
2018-07-11T08:34:51.400Z,18.74
2018-07-11T08:36:44.560Z,18.92
2018-07-11T08:37:44.392Z,18.77
2018-07-11T08:39:37.401Z,19.02
2018-07-11T08:40:37.368Z,19.08
2018-07-11T08:42:30.207Z,19.26
2018-07-11T08:43:30.162Z,19.31
2018-07-11T08:45:23.381Z,19.54
2018-07-11T08:46:23.257Z,19.58
2018-07-11T08:48:16.333Z,19.55
2018-07-11T08:49:16.282Z,19.56
2018-07-11T08:51:09.258Z,19.55
2018-07-11T08:52:09.218Z,19.66
2018-07-11T08:54:02.052Z,19.74
2018-07-11T08:55:02.090Z,19.73
2018-07-11T08:56:55.013Z,19.64
2018-07-11T08:57:54.993Z,19.79
2018-07-11T08:59:48.123Z,19.96
2018-07-11T09:00:48.067Z,20.09
2018-07-11T09:02:41.182Z,20.21
2018-07-11T09:03:41.111Z,20.24
2018-07-11T09:05:34.147Z,20.04
2018-07-11T09:06:34.116Z,20.18
2018-07-11T09:08:27.339Z,20.19
2018-07-11T09:09:27.240Z,20.19
2018-07-11T09:11:20.083Z,20.39
2018-07-11T09:12:20.024Z,20.31
2018-07-11T09:14:12.850Z,20.47
2018-07-11T09:15:12.812Z,20.50
2018-07-11T09:17:05.861Z,20.59
2018-07-11T09:18:05.836Z,20.52
2018-07-11T09:19:58.686Z,20.58
2018-07-11T09:20:58.623Z,20.60
2018-07-11T09:22:52.034Z,20.69
2018-07-11T09:23:51.609Z,20.65
2018-07-11T09:25:44.614Z,20.50
2018-07-11T09:26:44.574Z,20.43
2018-07-11T09:28:37.393Z,20.60
2018-07-11T09:29:37.360Z,20.59
2018-07-11T09:31:30.400Z,20.72
2018-07-11T09:32:30.359Z,20.81
2018-07-11T09:34:23.393Z,21.05
2018-07-11T09:35:23.350Z,21.07
2018-07-11T09:37:16.480Z,21.11
2018-07-11T09:38:16.341Z,21.14
2018-07-11T09:40:09.186Z,21.37
2018-07-11T09:41:09.149Z,21.57
2018-07-11T09:43:02.146Z,21.82
2018-07-11T09:44:02.110Z,21.91
2018-07-11T09:45:54.933Z,21.96
2018-07-11T09:46:54.896Z,21.99
2018-07-11T09:48:47.741Z,21.72
2018-07-11T09:49:47.690Z,21.83
2018-07-11T09:51:40.861Z,21.96
2018-07-11T09:52:40.801Z,21.99
2018-07-11T09:54:33.816Z,21.99
2018-07-11T09:55:33.795Z,21.95
2018-07-11T09:57:26.676Z,22.06
2018-07-11T09:58:26.632Z,22.02
2018-07-11T10:00:19.481Z,22.18
2018-07-11T10:01:19.433Z,22.18
2018-07-11T10:03:12.286Z,22.22
2018-07-11T10:04:12.210Z,22.35
2018-07-11T10:06:05.261Z,22.43
2018-07-11T10:07:05.231Z,22.59
2018-07-11T10:08:58.182Z,22.91
2018-07-11T10:09:58.145Z,23.23
2018-07-11T10:11:51.195Z,23.84
2018-07-11T10:12:51.123Z,24.16
2018-07-11T10:14:44.168Z,24.81
2018-07-11T10:15:44.131Z,24.77
2018-07-11T10:17:36.966Z,25.54
2018-07-11T10:18:36.944Z,25.69
2018-07-11T10:20:29.984Z,25.68
2018-07-11T10:21:29.945Z,26.26
2018-07-11T10:23:22.974Z,26.56
2018-07-11T10:24:22.958Z,26.81
2018-07-11T10:26:15.887Z,26.53
2018-07-11T10:27:15.842Z,26.71
2018-07-11T10:29:08.928Z,26.29
2018-07-11T10:30:08.906Z,26.38
2018-07-11T10:32:01.921Z,26.09
2018-07-11T10:33:01.898Z,25.51
2018-07-11T10:34:54.773Z,26.19
2018-07-11T10:35:54.713Z,26.56
2018-07-11T10:37:47.542Z,27.12
2018-07-11T10:38:47.522Z,27.25
2018-07-11T10:40:40.573Z,27.02
2018-07-11T10:41:40.533Z,26.60
2018-07-11T10:43:33.783Z,26.44
2018-07-11T10:44:33.663Z,25.96
2018-07-11T10:46:26.740Z,25.25
2018-07-11T10:47:26.692Z,24.60
2018-07-11T10:49:19.983Z,24.96
2018-07-11T10:50:19.843Z,24.93
2018-07-11T10:52:12.684Z,24.70
2018-07-11T10:53:12.635Z,24.66
2018-07-11T10:55:05.691Z,24.45
2018-07-11T10:56:05.643Z,24.26
2018-07-11T10:57:58.818Z,24.55
2018-07-11T10:58:58.770Z,24.54
2018-07-11T11:01:05.031Z,24.63
2018-07-11T11:01:51.756Z,24.54
2018-07-11T11:03:45.003Z,24.51
2018-07-11T11:04:44.999Z,24.45
2018-07-11T11:06:37.991Z,24.13
2018-07-11T11:07:37.970Z,24.08
2018-07-11T11:09:30.994Z,23.98
2018-07-11T11:10:30.936Z,23.99
2018-07-11T11:12:23.899Z,23.86
2018-07-11T11:13:23.739Z,24.13
2018-07-11T11:15:16.794Z,24.76
2018-07-11T11:16:16.756Z,24.88
2018-07-11T11:18:09.780Z,24.57
2018-07-11T11:19:09.763Z,24.55
2018-07-11T11:21:02.587Z,24.24
2018-07-11T11:22:02.564Z,24.40
2018-07-11T11:23:55.424Z,24.39
2018-07-11T11:24:55.350Z,24.39
2018-07-11T11:26:48.402Z,24.16
2018-07-11T11:27:48.351Z,24.16
2018-07-11T11:29:41.627Z,23.66
2018-07-11T11:30:41.480Z,23.69
2018-07-11T11:32:34.515Z,23.65
2018-07-11T11:33:34.460Z,23.93
2018-07-11T11:35:27.491Z,24.66
2018-07-11T11:36:27.456Z,25.11
2018-07-11T11:38:20.289Z,25.72
2018-07-11T11:39:20.249Z,26.02
2018-07-11T11:41:13.102Z,26.44
2018-07-11T11:42:13.315Z,26.65
2018-07-11T11:44:06.095Z,27.49
2018-07-11T11:45:06.052Z,27.83
2018-07-11T11:46:59.267Z,28.15
2018-07-11T11:47:59.187Z,28.60
2018-07-11T11:49:52.246Z,28.86
2018-07-11T11:50:52.217Z,28.42
2018-07-11T11:52:45.259Z,28.59
2018-07-11T11:53:45.209Z,28.56
2018-07-11T11:55:38.059Z,28.48
2018-07-11T11:56:38.023Z,28.56
2018-07-11T11:58:31.096Z,28.05
2018-07-11T11:59:31.020Z,27.96
2018-07-11T12:01:24.079Z,27.54
2018-07-11T12:02:24.034Z,27.63
2018-07-11T12:04:16.925Z,27.92
2018-07-11T12:05:16.876Z,28.33
2018-07-11T12:07:09.940Z,28.84
2018-07-11T12:08:09.890Z,29.01
2018-07-11T12:10:02.966Z,29.63
2018-07-11T12:11:02.942Z,29.54
2018-07-11T12:12:55.766Z,29.47
2018-07-11T12:13:55.739Z,29.34
2018-07-11T12:15:48.788Z,29.38
2018-07-11T12:16:48.761Z,29.36
2018-07-11T12:18:41.790Z,29.26
2018-07-11T12:19:41.767Z,29.84
2018-07-11T12:21:34.713Z,30.03
2018-07-11T12:22:34.582Z,29.98
2018-07-11T12:24:27.426Z,29.50
2018-07-11T12:25:27.408Z,28.63
2018-07-11T12:27:20.479Z,28.57
2018-07-11T12:28:20.450Z,28.97
2018-07-11T12:30:13.666Z,28.82
2018-07-11T12:31:13.618Z,28.19
2018-07-11T12:33:06.647Z,27.49
2018-07-11T12:34:06.662Z,27.40
2018-07-11T12:36:00.076Z,27.49
2018-07-11T12:36:59.832Z,27.29
2018-07-11T12:38:53.118Z,27.35
2018-07-11T12:39:53.098Z,27.15
2018-07-11T12:41:45.962Z,26.96
2018-07-11T12:42:45.897Z,27.25
2018-07-11T12:44:38.925Z,27.30
2018-07-11T12:45:38.896Z,27.86
2018-07-11T12:47:31.940Z,27.92
2018-07-11T12:48:31.903Z,28.08
2018-07-11T12:50:24.744Z,28.66
2018-07-11T12:51:24.707Z,29.02
2018-07-11T12:53:17.761Z,28.39
2018-07-11T12:54:17.721Z,28.15
2018-07-11T12:56:10.743Z,27.98
2018-07-11T12:57:10.719Z,28.01
2018-07-11T12:59:03.704Z,27.45
2018-07-11T13:00:03.630Z,27.27
2018-07-11T13:01:56.488Z,27.36
2018-07-11T13:02:56.428Z,27.18
2018-07-11T13:04:49.492Z,27.45
2018-07-11T13:05:49.544Z,27.63
2018-07-11T13:07:42.690Z,28.05
2018-07-11T13:08:42.624Z,27.90
2018-07-11T13:10:35.658Z,27.59
2018-07-11T13:11:35.638Z,27.35
2018-07-11T13:13:28.879Z,27.78
2018-07-11T13:14:28.772Z,27.85
2018-07-11T13:16:22.274Z,27.98
2018-07-11T13:17:22.073Z,28.23
2018-07-11T13:19:15.921Z,28.39
2018-07-11T13:20:15.864Z,28.02
2018-07-11T13:22:08.924Z,27.35
2018-07-11T13:23:08.893Z,27.68
2018-07-11T13:25:02.187Z,27.51
2018-07-11T13:26:02.165Z,27.85
2018-07-11T13:27:55.301Z,27.49
2018-07-11T13:28:55.253Z,27.47
2018-07-11T13:30:48.783Z,26.75
2018-07-11T13:31:48.393Z,26.80
2018-07-11T13:33:41.238Z,26.43
2018-07-11T13:34:41.187Z,26.53
2018-07-11T13:36:34.236Z,26.28
2018-07-11T13:37:34.251Z,26.28
2018-07-11T13:39:27.420Z,26.23
2018-07-11T13:40:27.344Z,25.93
2018-07-11T13:42:20.385Z,26.18
2018-07-11T13:43:20.342Z,26.47
2018-07-11T13:45:13.501Z,26.84
2018-07-11T13:46:13.495Z,27.39
2018-07-11T13:48:06.525Z,27.67
2018-07-11T13:49:06.480Z,27.39
2018-07-11T13:50:59.522Z,27.87
2018-07-11T13:51:59.486Z,28.32
2018-07-11T13:53:52.447Z,28.27
2018-07-11T13:54:52.300Z,28.22
2018-07-11T13:56:45.322Z,27.63
2018-07-11T13:57:45.302Z,27.58
2018-07-11T13:59:38.357Z,27.33
2018-07-11T14:00:38.329Z,27.30
2018-07-11T14:02:31.177Z,27.14
2018-07-11T14:03:31.157Z,27.26
2018-07-11T14:05:24.236Z,27.10
2018-07-11T14:06:24.201Z,26.97
2018-07-11T14:08:17.233Z,27.17
2018-07-11T14:09:17.199Z,27.18
2018-07-11T14:11:10.120Z,26.85
2018-07-11T14:12:09.996Z,26.83
2018-07-11T14:14:03.103Z,26.85
2018-07-11T14:15:03.038Z,26.83
2018-07-11T14:16:56.054Z,26.38
2018-07-11T14:17:56.033Z,26.07
2018-07-11T14:19:49.122Z,26.06
2018-07-11T14:20:49.084Z,25.99
2018-07-11T14:22:42.124Z,25.73
2018-07-11T14:23:42.110Z,25.55
2018-07-11T14:25:35.055Z,25.38
2018-07-11T14:26:34.895Z,25.25
2018-07-11T14:28:27.721Z,25.04
2018-07-11T14:29:27.690Z,25.04
2018-07-11T14:31:20.743Z,24.98
2018-07-11T14:32:20.696Z,24.85
2018-07-11T14:34:13.726Z,24.73
2018-07-11T14:35:13.703Z,24.60
2018-07-11T14:37:06.627Z,24.61
2018-07-11T14:38:06.571Z,24.58
2018-07-11T14:39:59.570Z,24.40
2018-07-11T14:40:59.551Z,24.38
2018-07-11T14:42:52.590Z,24.33
2018-07-11T14:43:52.558Z,24.43
2018-07-11T14:45:45.715Z,24.21
2018-07-11T14:46:45.643Z,24.16
2018-07-11T14:48:38.665Z,24.21
2018-07-11T14:49:38.643Z,24.11
2018-07-11T14:51:32.035Z,23.95
2018-07-11T14:52:31.771Z,23.86
2018-07-11T14:54:24.792Z,23.98
2018-07-11T14:55:24.759Z,23.99
2018-07-11T14:57:17.938Z,23.92
2018-07-11T14:58:17.954Z,23.87
2018-07-11T15:00:11.002Z,23.87
2018-07-11T15:01:10.959Z,23.80
2018-07-11T15:03:03.994Z,23.63
2018-07-11T15:04:03.964Z,23.59
2018-07-11T15:05:56.770Z,23.59
2018-07-11T15:06:56.738Z,23.50
2018-07-11T15:08:49.842Z,23.48
2018-07-11T15:09:49.737Z,23.47
2018-07-11T15:11:42.799Z,23.46
2018-07-11T15:12:42.729Z,23.48
2018-07-11T15:14:35.586Z,23.37
2018-07-11T15:15:35.528Z,23.43
2018-07-11T15:17:28.600Z,23.20
2018-07-11T15:18:28.553Z,23.12
2018-07-11T15:20:21.445Z,23.02
2018-07-11T15:21:21.343Z,22.96
2018-07-11T15:23:14.659Z,23.00
2018-07-11T15:24:14.563Z,22.99
2018-07-11T15:26:07.572Z,22.90
2018-07-11T15:27:07.538Z,22.78
2018-07-11T15:29:00.596Z,22.50
2018-07-11T15:30:00.521Z,22.54
2018-07-11T15:31:53.411Z,22.25
2018-07-11T15:32:53.344Z,22.20
2018-07-11T15:34:46.403Z,21.85
2018-07-11T15:35:46.349Z,21.67
2018-07-11T15:37:39.370Z,21.29
2018-07-11T15:38:39.351Z,21.07
2018-07-11T15:40:32.172Z,21.12
2018-07-11T15:41:32.129Z,21.00
2018-07-11T15:43:25.209Z,21.14
2018-07-11T15:44:25.166Z,20.92
2018-07-11T15:46:18.190Z,20.75
2018-07-11T15:47:18.201Z,20.67
2018-07-11T15:49:11.000Z,20.67
2018-07-11T15:50:10.946Z,20.48
2018-07-11T15:52:03.950Z,20.47
2018-07-11T15:53:03.921Z,20.37
2018-07-11T15:54:56.955Z,20.21
2018-07-11T15:55:56.892Z,20.24
2018-07-11T15:57:50.059Z,20.19
2018-07-11T15:58:50.060Z,20.24
2018-07-11T16:00:43.060Z,20.32
2018-07-11T16:01:43.005Z,20.29
2018-07-11T16:03:36.331Z,20.29
2018-07-11T16:04:36.126Z,20.13
2018-07-11T16:06:28.957Z,20.26
2018-07-11T16:07:28.910Z,20.25
2018-07-11T16:09:21.941Z,20.28
2018-07-11T16:10:21.914Z,20.36
2018-07-11T16:12:15.186Z,20.29
2018-07-11T16:13:15.104Z,20.31
2018-07-11T16:15:08.104Z,20.34
2018-07-11T16:16:08.046Z,20.34
2018-07-11T16:18:01.276Z,20.39
2018-07-11T16:19:01.213Z,20.43
2018-07-11T16:20:54.266Z,20.44
2018-07-11T16:21:54.217Z,20.51
2018-07-11T16:23:47.054Z,20.52
2018-07-11T16:24:47.080Z,20.63
2018-07-11T16:26:40.278Z,20.65
2018-07-11T16:27:40.191Z,20.69
2018-07-11T16:29:33.002Z,20.66
2018-07-11T16:30:32.984Z,20.67
2018-07-11T16:32:26.007Z,20.69
2018-07-11T16:33:25.974Z,20.63
2018-07-11T16:35:19.152Z,20.67
2018-07-11T16:36:19.106Z,20.70
2018-07-11T16:38:12.137Z,20.74
2018-07-11T16:39:12.123Z,20.78
2018-07-11T16:41:05.511Z,20.77
2018-07-11T16:42:05.232Z,20.63
2018-07-11T16:43:58.065Z,20.72
2018-07-11T16:44:58.013Z,20.80
2018-07-11T16:46:51.030Z,20.80
2018-07-11T16:47:50.991Z,20.87
2018-07-11T16:49:44.172Z,20.88
2018-07-11T16:50:44.119Z,20.88
2018-07-11T16:52:37.122Z,20.84
2018-07-11T16:53:37.093Z,20.87
2018-07-11T16:55:30.150Z,20.92
2018-07-11T16:56:30.078Z,20.95
2018-07-11T16:58:22.938Z,21.02
2018-07-11T16:59:22.851Z,20.99
2018-07-11T17:01:15.692Z,21.06
2018-07-11T17:02:15.648Z,21.12
2018-07-11T17:04:08.672Z,21.11
2018-07-11T17:05:08.619Z,21.20
2018-07-11T17:07:01.868Z,21.17
2018-07-11T17:08:01.722Z,21.25
2018-07-11T17:09:54.814Z,21.29
2018-07-11T17:10:54.759Z,21.25
2018-07-11T17:12:47.747Z,21.29
2018-07-11T17:13:47.718Z,21.42
2018-07-11T17:15:40.609Z,21.35
2018-07-11T17:16:40.558Z,21.32
2018-07-11T17:18:33.560Z,21.30
2018-07-11T17:19:33.498Z,21.33
2018-07-11T17:21:26.643Z,21.06
2018-07-11T17:22:26.485Z,21.02
2018-07-11T17:24:19.299Z,20.52
2018-07-11T17:25:19.262Z,20.31
2018-07-11T17:27:12.145Z,20.09
2018-07-11T17:28:12.048Z,19.99
2018-07-11T17:30:04.893Z,19.73
2018-07-11T17:31:04.851Z,19.54
2018-07-11T17:32:57.885Z,19.49
2018-07-11T17:33:57.819Z,19.41
2018-07-11T17:35:50.668Z,19.26
2018-07-11T17:36:50.618Z,19.29
2018-07-11T17:38:43.924Z,19.34
2018-07-11T17:39:43.903Z,19.40
2018-07-11T17:41:36.915Z,19.45
2018-07-11T17:42:36.859Z,19.49
2018-07-11T17:44:29.679Z,19.44
2018-07-11T17:45:29.656Z,19.41
2018-07-11T17:47:22.664Z,19.36
2018-07-11T17:48:22.687Z,19.29
2018-07-11T17:50:15.616Z,19.39
2018-07-11T17:51:15.591Z,19.30
2018-07-11T17:53:08.821Z,19.30
2018-07-11T17:54:08.674Z,19.31
2018-07-11T17:56:01.670Z,19.30
2018-07-11T17:57:01.650Z,19.37
2018-07-11T17:58:54.649Z,19.36
2018-07-11T17:59:54.599Z,19.34
2018-07-11T18:01:47.464Z,19.45
2018-07-11T18:02:47.411Z,19.33
2018-07-11T18:04:40.399Z,19.29
2018-07-11T18:05:40.363Z,19.34
2018-07-11T18:07:33.361Z,19.31
2018-07-11T18:08:33.308Z,19.34
2018-07-11T18:10:26.520Z,19.30
2018-07-11T18:11:26.422Z,19.34
2018-07-11T18:13:19.420Z,19.40
2018-07-11T18:14:19.376Z,19.36
2018-07-11T18:16:12.381Z,19.44
2018-07-11T18:17:12.353Z,19.40
2018-07-11T18:19:05.211Z,19.37
2018-07-11T18:20:05.140Z,19.41
2018-07-11T18:21:58.200Z,19.44
2018-07-11T18:22:58.152Z,19.47
2018-07-11T18:24:51.174Z,19.41
2018-07-11T18:25:51.121Z,19.47
2018-07-11T18:27:44.144Z,19.40
2018-07-11T18:28:44.004Z,19.40
2018-07-11T18:30:37.027Z,19.49
2018-07-11T18:31:36.981Z,19.49
2018-07-11T18:33:29.990Z,19.51